KSGR/SGR METAR and TAF weather

Enter ICAO airport designator
Station Type Date Time Source
KSGR METAR 2020/08/05 15:53 UTC NOAA

KSGR 051553Z 26003KT 10SM FEW023 31/24 A3001 RMK AO2 SLP164 T03110244


Station Type Date Time Source
KSGR Decoded METAR 2020/08/05 15:53 UTC NOAA

SUGARLAND REGIONAL AIRPORT, TX, United States (KSGR) 29-37N 095-39W
Aug 05, 2020 - 11:53 AM EDT / 2020.08.05 1553 UTC
Wind: from the W (260 degrees) at 3 MPH (3 KT):0
Visibility: 10 mile(s):0
Sky conditions: mostly clear
Temperature: 88.0 F (31.1 C)
Heat index: 98.6 F (37.0 C):1
Dew Point: 75.9 F (24.4 C)
Relative Humidity: 67%
Pressure (altimeter): 30.01 in. Hg (1016 hPa)
ob: KSGR 051553Z 26003KT 10SM FEW023 31/24 A3001 RMK AO2 SLP164 T03110244
cycle: 16

Station Type Date Time Source
KSGR TAF 2020/08/05 12:30 UTC NOAA

TAF KSGR 051128Z 0512/0612 VRB02KT 6SM BR SCT020
FM051500 21005KT P6SM SCT030
FM052100 18006KT P6SM VCSH SCT040
FM060100 18004KT P6SM BKN120

Example: see airport list